Time;durP1;ratioP1;P1;durP2;ratioP2;P2;SDS_P1;SDS_P2;PMS_P1;PMS_P2;Temp;Humidity;BMP_temperature;BMP_pressure;BME280_temperature;BME280_humidity;BME280_pressure;Samples;Min_cycle;Max_cycle;Signal;HPM_P1;HPM_P2
2022/09/18 00:02:30;;;;;;;4.60;1.10;;;;;;;;;;5136516;27;20442;-72
2022/09/18 00:04:58;;;;;;;7.83;1.50;;;;;;;;;;5138934;27;20546;-71
2022/09/18 00:07:25;;;;;;;5.60;1.40;;;;;;;;;;5138665;27;20466;-72
2022/09/18 00:09:55;;;;;;;8.30;1.37;;;;;;;;;;5139107;27;20555;-72
2022/09/18 00:12:22;;;;;;;5.97;1.40;;;;;;;;;;5137461;27;20731;-71
2022/09/18 00:14:49;;;;;;;5.87;1.63;;;;;;;;;;5137858;27;20499;-71
2022/09/18 00:17:17;;;;;;;6.43;1.67;;;;;;;;;;5137382;27;20524;-71
2022/09/18 00:19:44;;;;;;;6.67;1.60;;;;;;;;;;5137145;27;20491;-71
2022/09/18 00:22:12;;;;;;;9.00;1.70;;;;;;;;;;5121638;27;20473;-71
2022/09/18 00:24:38;;;;;;;10.93;1.73;;;;;;;;;;5117547;27;20545;-70
2022/09/18 00:27:06;;;;;;;5.70;1.03;;;;;;;;;;5118781;27;20862;-71
2022/09/18 00:29:33;;;;;;;10.10;1.13;;;;;;;;;;5116847;27;20438;-71
2022/09/18 00:32:00;;;;;;;6.03;1.27;;;;;;;;;;5117059;27;20474;-71
2022/09/18 00:34:27;;;;;;;5.00;0.93;;;;;;;;;;5117156;27;20570;-71
2022/09/18 00:36:54;;;;;;;2.77;1.07;;;;;;;;;;5117061;27;20795;-71
2022/09/18 00:39:22;;;;;;;12.43;2.13;;;;;;;;;;5115996;27;20443;-70
2022/09/18 00:41:53;;;;;;;8.10;1.63;;;;;;;;;;5116391;27;20454;-72
2022/09/18 00:44:29;;;;;;;4.50;1.13;;;;;;;;;;5125152;27;20494;-71
2022/09/18 00:46:58;;;;;;;3.77;0.90;;;;;;;;;;5136556;27;20461;-71
2022/09/18 00:49:26;;;;;;;11.60;1.20;;;;;;;;;;5138062;27;20537;-71
2022/09/18 00:51:55;;;;;;;7.47;1.53;;;;;;;;;;5135698;27;20445;-71
2022/09/18 00:54:25;;;;;;;4.50;1.10;;;;;;;;;;5136153;27;20465;-71
2022/09/18 00:56:54;;;;;;;4.43;1.53;;;;;;;;;;5135090;27;21088;-71
2022/09/18 00:59:24;;;;;;;5.43;1.00;;;;;;;;;;5135487;27;20463;-71
2022/09/18 01:01:51;;;;;;;8.10;1.43;;;;;;;;;;5136548;27;20457;-71
2022/09/18 01:04:21;;;;;;;7.10;1.10;;;;;;;;;;5135464;27;20541;-70
2022/09/18 01:06:51;;;;;;;11.63;1.60;;;;;;;;;;5137012;27;20537;-72
2022/09/18 01:09:21;;;;;;;9.43;1.47;;;;;;;;;;5136220;27;20831;-71
2022/09/18 01:11:51;;;;;;;9.10;1.80;;;;;;;;;;5137293;27;20457;-71
2022/09/18 01:14:23;;;;;;;6.97;1.10;;;;;;;;;;5136749;27;20473;-71
2022/09/18 01:16:53;;;;;;;5.47;1.80;;;;;;;;;;5136414;27;20904;-71
2022/09/18 01:19:31;;;;;;;5.07;1.00;;;;;;;;;;5134440;27;20489;-71
2022/09/18 01:22:01;;;;;;;3.40;1.53;;;;;;;;;;5137296;27;20451;-71
2022/09/18 01:24:43;;;;;;;8.60;2.07;;;;;;;;;;5136078;27;20478;-71
2022/09/18 01:27:17;;;;;;;8.20;1.80;;;;;;;;;;5134552;27;20450;-71
2022/09/18 01:29:48;;;;;;;8.20;1.80;;;;;;;;;;5136788;27;20548;-71
2022/09/18 01:32:27;;;;;;;3.40;1.20;;;;;;;;;;5135949;27;20526;-71
2022/09/18 01:34:58;;;;;;;4.57;1.20;;;;;;;;;;5136001;27;20499;-71
2022/09/18 01:37:28;;;;;;;4.60;1.20;;;;;;;;;;5135165;27;20493;-72
2022/09/18 01:39:58;;;;;;;5.27;1.23;;;;;;;;;;5137856;27;20446;-70
2022/09/18 01:42:28;;;;;;;8.87;1.77;;;;;;;;;;5137042;27;20874;-71
2022/09/18 01:44:58;;;;;;;10.90;1.77;;;;;;;;;;5135772;27;20450;-71
2022/09/18 01:47:27;;;;;;;4.13;1.57;;;;;;;;;;5135829;27;20518;-71
2022/09/18 01:49:55;;;;;;;8.40;2.43;;;;;;;;;;5136272;27;20465;-71
2022/09/18 01:52:24;;;;;;;7.13;1.80;;;;;;;;;;5135103;27;20445;-71
2022/09/18 01:54:51;;;;;;;6.80;1.47;;;;;;;;;;5137991;27;20734;-71
2022/09/18 01:57:21;;;;;;;4.90;1.50;;;;;;;;;;5135181;27;20477;-71
2022/09/18 01:59:51;;;;;;;8.33;1.50;;;;;;;;;;5136169;27;20866;-71
2022/09/18 02:02:20;;;;;;;5.83;2.37;;;;;;;;;;5136842;27;20446;-71
2022/09/18 02:04:50;;;;;;;7.50;1.03;;;;;;;;;;5134006;27;20737;-71
2022/09/18 02:07:20;;;;;;;9.80;1.47;;;;;;;;;;5137059;27;20545;-71
2022/09/18 02:09:48;;;;;;;3.23;1.03;;;;;;;;;;5127216;27;20629;-71
2022/09/18 02:12:17;;;;;;;6.60;1.53;;;;;;;;;;5123694;27;20438;-71
2022/09/18 02:14:47;;;;;;;9.20;2.30;;;;;;;;;;5135903;27;20456;-71
2022/09/18 02:17:16;;;;;;;7.97;1.40;;;;;;;;;;5136850;27;20688;-71
2022/09/18 02:19:46;;;;;;;9.30;1.50;;;;;;;;;;5132283;27;20439;-71
2022/09/18 02:22:18;;;;;;;6.77;1.67;;;;;;;;;;5131345;27;20453;-71
2022/09/18 02:24:46;;;;;;;9.63;1.20;;;;;;;;;;5132685;27;20910;-71
2022/09/18 02:27:17;;;;;;;9.93;2.00;;;;;;;;;;5128298;27;20511;-71
2022/09/18 02:29:47;;;;;;;3.60;1.20;;;;;;;;;;5132623;27;20518;-71
2022/09/18 02:32:15;;;;;;;5.67;1.10;;;;;;;;;;5135156;27;20450;-71
2022/09/18 02:34:43;;;;;;;4.73;1.60;;;;;;;;;;5134457;27;20838;-71
2022/09/18 02:37:19;;;;;;;5.50;1.73;;;;;;;;;;5115963;27;20539;-71
2022/09/18 02:39:51;;;;;;;7.90;1.73;;;;;;;;;;5125612;27;20458;-71
2022/09/18 02:42:24;;;;;;;7.50;1.47;;;;;;;;;;5136625;27;20468;-71
2022/09/18 02:44:57;;;;;;;6.33;1.10;;;;;;;;;;5115833;27;20455;-71
2022/09/18 02:47:30;;;;;;;6.60;1.00;;;;;;;;;;5115809;27;20844;-71
2022/09/18 02:50:06;;;;;;;8.83;1.30;;;;;;;;;;5119075;27;20761;-71
2022/09/18 02:52:36;;;;;;;10.43;1.00;;;;;;;;;;5127319;27;20863;-70
2022/09/18 02:55:06;;;;;;;11.97;1.63;;;;;;;;;;5129740;27;20477;-71
2022/09/18 02:57:36;;;;;;;13.13;1.20;;;;;;;;;;5134549;27;20511;-71
2022/09/18 03:00:05;;;;;;;4.63;1.87;;;;;;;;;;5136451;27;20454;-70
2022/09/18 03:02:32;;;;;;;8.67;1.57;;;;;;;;;;5136284;27;20860;-71
2022/09/18 03:04:59;;;;;;;4.50;1.20;;;;;;;;;;5136642;27;20884;-71
2022/09/18 03:07:26;;;;;;;4.27;1.30;;;;;;;;;;5137151;27;20474;-71
2022/09/18 03:09:55;;;;;;;6.90;1.80;;;;;;;;;;5137123;27;20453;-71
2022/09/18 03:12:23;;;;;;;7.73;1.23;;;;;;;;;;5134267;27;20490;-71
2022/09/18 03:14:51;;;;;;;5.03;1.30;;;;;;;;;;5135368;27;20465;-71
2022/09/18 03:17:18;;;;;;;8.80;1.77;;;;;;;;;;5133981;27;20541;-71
2022/09/18 03:19:45;;;;;;;5.07;1.57;;;;;;;;;;5133301;27;20746;-71
2022/09/18 03:22:12;;;;;;;10.17;1.37;;;;;;;;;;5135547;27;20491;-71
2022/09/18 03:24:43;;;;;;;8.20;2.00;;;;;;;;;;5134430;27;20492;-71
2022/09/18 03:27:11;;;;;;;6.70;1.47;;;;;;;;;;5134131;27;20877;-71
2022/09/18 03:29:38;;;;;;;3.47;0.80;;;;;;;;;;5136964;27;20461;-71
2022/09/18 03:32:05;;;;;;;7.03;1.20;;;;;;;;;;5136669;27;20466;-71
2022/09/18 03:34:32;;;;;;;8.30;1.43;;;;;;;;;;5137496;27;20541;-71
2022/09/18 03:36:59;;;;;;;10.07;2.30;;;;;;;;;;5137146;27;20501;-71
2022/09/18 03:39:26;;;;;;;5.60;0.90;;;;;;;;;;5135322;27;20457;-71
2022/09/18 03:41:53;;;;;;;11.73;1.43;;;;;;;;;;5135688;27;20917;-71
2022/09/18 03:44:21;;;;;;;4.30;1.33;;;;;;;;;;5134816;27;20442;-71
2022/09/18 03:46:48;;;;;;;11.07;1.70;;;;;;;;;;5134940;27;20469;-71
2022/09/18 03:49:15;;;;;;;3.80;1.00;;;;;;;;;;5134911;27;20446;-71
2022/09/18 03:51:43;;;;;;;6.40;1.07;;;;;;;;;;5123238;27;20569;-71
2022/09/18 03:54:10;;;;;;;2.80;1.20;;;;;;;;;;5112291;27;20726;-71
2022/09/18 03:56:37;;;;;;;10.90;1.37;;;;;;;;;;5114510;27;20932;-70
2022/09/18 03:59:04;;;;;;;5.90;1.27;;;;;;;;;;5114258;27;20454;-70
2022/09/18 04:01:32;;;;;;;4.70;0.93;;;;;;;;;;5113853;27;20455;-71
2022/09/18 04:03:59;;;;;;;5.73;1.17;;;;;;;;;;5113845;27;20866;-70
2022/09/18 04:06:26;;;;;;;8.47;1.97;;;;;;;;;;5113085;27;20553;-71
2022/09/18 04:08:53;;;;;;;15.20;1.57;;;;;;;;;;5115094;27;20455;-70
2022/09/18 04:11:21;;;;;;;5.20;2.50;;;;;;;;;;5112913;27;20458;-70
2022/09/18 04:13:48;;;;;;;3.00;0.80;;;;;;;;;;5113867;27;20455;-70
2022/09/18 04:16:15;;;;;;;5.80;1.53;;;;;;;;;;5114127;27;20930;-71
2022/09/18 04:18:43;;;;;;;3.23;0.90;;;;;;;;;;5113242;27;20450;-70
2022/09/18 04:21:10;;;;;;;12.97;1.20;;;;;;;;;;5113422;27;20846;-70
2022/09/18 04:23:37;;;;;;;3.60;0.90;;;;;;;;;;5113495;27;20544;-71
2022/09/18 04:26:08;;;;;;;8.50;1.07;;;;;;;;;;5119612;27;20465;-70
2022/09/18 04:28:35;;;;;;;4.70;1.13;;;;;;;;;;5137195;27;20866;-71
2022/09/18 04:31:02;;;;;;;7.67;1.43;;;;;;;;;;5137738;27;20448;-70
2022/09/18 04:33:29;;;;;;;11.80;1.40;;;;;;;;;;5137308;27;20518;-70
2022/09/18 04:35:57;;;;;;;5.70;1.03;;;;;;;;;;5139083;27;20486;-70
2022/09/18 04:38:26;;;;;;;7.97;1.20;;;;;;;;;;5137395;27;20468;-71
2022/09/18 04:40:55;;;;;;;10.03;1.30;;;;;;;;;;5138254;27;20449;-70
2022/09/18 04:43:22;;;;;;;3.10;1.13;;;;;;;;;;5137356;27;20521;-71
2022/09/18 04:45:49;;;;;;;4.30;1.17;;;;;;;;;;5135939;27;20441;-70
2022/09/18 04:48:17;;;;;;;16.13;1.73;;;;;;;;;;5137240;27;20468;-70
2022/09/18 04:50:45;;;;;;;4.33;1.50;;;;;;;;;;5136495;27;20457;-70
2022/09/18 04:53:13;;;;;;;9.80;0.90;;;;;;;;;;5136921;27;20525;-71
2022/09/18 04:55:40;;;;;;;10.07;1.30;;;;;;;;;;5137093;27;20729;-70
2022/09/18 04:58:07;;;;;;;9.17;1.30;;;;;;;;;;5136143;27;20862;-70
2022/09/18 05:00:34;;;;;;;3.50;1.17;;;;;;;;;;5137165;27;20952;-70
2022/09/18 05:03:01;;;;;;;1.93;0.63;;;;;;;;;;5137187;27;20858;-71
2022/09/18 05:05:29;;;;;;;3.70;1.57;;;;;;;;;;5137122;27;20839;-70
2022/09/18 05:07:58;;;;;;;7.53;2.40;;;;;;;;;;5136553;27;20487;-70
2022/09/18 05:10:26;;;;;;;5.10;0.90;;;;;;;;;;5136884;27;20480;-70
2022/09/18 05:12:54;;;;;;;5.93;1.70;;;;;;;;;;5137092;27;20457;-71
2022/09/18 05:15:21;;;;;;;6.33;1.10;;;;;;;;;;5137939;27;20444;-70
2022/09/18 05:17:48;;;;;;;8.27;1.30;;;;;;;;;;5136459;27;20574;-71
2022/09/18 05:20:15;;;;;;;7.93;1.37;;;;;;;;;;5136311;27;20438;-71
2022/09/18 05:22:46;;;;;;;4.80;1.20;;;;;;;;;;5136332;27;20446;-71
2022/09/18 05:25:14;;;;;;;4.33;1.27;;;;;;;;;;5124452;27;20434;-71
2022/09/18 05:27:42;;;;;;;8.63;1.77;;;;;;;;;;5119627;27;20523;-71
2022/09/18 05:30:09;;;;;;;4.03;1.30;;;;;;;;;;5116710;27;20451;-71
2022/09/18 05:32:36;;;;;;;3.77;0.93;;;;;;;;;;5116884;27;20865;-70
2022/09/18 05:35:09;;;;;;;3.87;0.87;;;;;;;;;;5127325;27;20465;-71
2022/09/18 05:37:37;;;;;;;7.10;1.57;;;;;;;;;;5136682;27;20865;-71
2022/09/18 05:40:05;;;;;;;6.33;1.10;;;;;;;;;;5134970;27;20524;-72
2022/09/18 05:42:32;;;;;;;7.63;1.70;;;;;;;;;;5137115;27;20530;-70
2022/09/18 05:44:59;;;;;;;13.03;2.20;;;;;;;;;;5134552;27;20477;-70
2022/09/18 05:47:26;;;;;;;3.30;1.10;;;;;;;;;;5136461;27;20489;-71
2022/09/18 05:49:53;;;;;;;6.70;1.10;;;;;;;;;;5135883;27;20533;-71
2022/09/18 05:52:21;;;;;;;4.80;1.27;;;;;;;;;;5135190;27;20454;-70
2022/09/18 05:54:48;;;;;;;4.23;1.40;;;;;;;;;;5135856;27;20450;-71
2022/09/18 05:57:15;;;;;;;4.30;0.90;;;;;;;;;;5136072;27;20497;-70
2022/09/18 05:59:42;;;;;;;7.30;1.93;;;;;;;;;;5134776;27;20445;-71
2022/09/18 06:02:10;;;;;;;3.00;0.90;;;;;;;;;;5135326;27;20465;-71
2022/09/18 06:04:38;;;;;;;3.80;1.80;;;;;;;;;;5135663;27;20450;-71
2022/09/18 06:07:06;;;;;;;7.70;1.90;;;;;;;;;;5134854;27;20498;-71
2022/09/18 06:09:33;;;;;;;2.83;0.90;;;;;;;;;;5134337;27;20465;-70
2022/09/18 06:12:00;;;;;;;9.00;1.30;;;;;;;;;;5135945;27;20506;-70
2022/09/18 06:14:28;;;;;;;5.30;1.13;;;;;;;;;;5134700;27;20449;-70
2022/09/18 06:16:55;;;;;;;4.70;1.00;;;;;;;;;;5136186;27;20496;-71
2022/09/18 06:19:23;;;;;;;9.20;1.50;;;;;;;;;;5134568;27;20862;-71
2022/09/18 06:21:50;;;;;;;6.20;1.60;;;;;;;;;;5135156;27;20450;-70
2022/09/18 06:24:18;;;;;;;10.67;1.50;;;;;;;;;;5133867;27;20449;-70
2022/09/18 06:26:45;;;;;;;3.87;0.87;;;;;;;;;;5133841;27;20465;-71
2022/09/18 06:29:12;;;;;;;7.30;1.47;;;;;;;;;;5134734;27;20846;-70
2022/09/18 06:31:39;;;;;;;6.30;2.50;;;;;;;;;;5134758;27;20896;-71
2022/09/18 06:34:09;;;;;;;5.97;0.80;;;;;;;;;;5135312;27;20893;-71
2022/09/18 06:36:37;;;;;;;6.80;1.40;;;;;;;;;;5134716;27;20478;-70
2022/09/18 06:39:04;;;;;;;5.87;1.07;;;;;;;;;;5133890;27;20460;-70
2022/09/18 06:41:31;;;;;;;2.80;1.13;;;;;;;;;;5134608;27;20721;-70
2022/09/18 06:43:58;;;;;;;7.37;1.03;;;;;;;;;;5133856;27;20572;-70
2022/09/18 06:46:25;;;;;;;4.27;1.10;;;;;;;;;;5131024;27;20485;-71
2022/09/18 06:48:52;;;;;;;1.70;1.03;;;;;;;;;;5135835;27;20670;-70
2022/09/18 06:51:19;;;;;;;2.40;1.03;;;;;;;;;;5134228;27;20445;-70
2022/09/18 06:53:47;;;;;;;5.33;1.00;;;;;;;;;;5134531;27;20465;-70
2022/09/18 06:56:14;;;;;;;5.20;1.17;;;;;;;;;;5117244;27;20507;-69
2022/09/18 06:58:41;;;;;;;2.93;0.87;;;;;;;;;;5117016;27;20446;-70
2022/09/18 07:01:08;;;;;;;6.30;1.03;;;;;;;;;;5115688;27;20456;-70
2022/09/18 07:03:35;;;;;;;3.13;1.00;;;;;;;;;;5114174;27;20737;-70
2022/09/18 07:06:02;;;;;;;5.87;1.10;;;;;;;;;;5115917;27;20458;-70
2022/09/18 07:08:30;;;;;;;2.90;0.90;;;;;;;;;;5130332;27;20470;-70
2022/09/18 07:11:01;;;;;;;5.30;1.40;;;;;;;;;;5114176;27;20498;-71
2022/09/18 07:13:30;;;;;;;4.80;1.20;;;;;;;;;;5115052;27;20471;-71
2022/09/18 07:15:58;;;;;;;14.83;3.73;;;;;;;;;;5115037;27;21114;-72
2022/09/18 07:18:25;;;;;;;6.80;1.87;;;;;;;;;;5114696;27;20463;-70
2022/09/18 07:20:52;;;;;;;7.37;1.60;;;;;;;;;;5114349;27;20970;-71
2022/09/18 07:23:19;;;;;;;4.33;1.03;;;;;;;;;;5114535;27;20867;-71
2022/09/18 07:25:47;;;;;;;6.23;1.50;;;;;;;;;;5114138;27;20458;-70
2022/09/18 07:28:15;;;;;;;3.73;1.50;;;;;;;;;;5115709;27;20442;-71
2022/09/18 07:30:45;;;;;;;4.47;1.30;;;;;;;;;;5113852;27;20487;-71
2022/09/18 07:33:12;;;;;;;27.17;3.53;;;;;;;;;;5115606;27;20447;-70
2022/09/18 07:35:39;;;;;;;6.40;1.20;;;;;;;;;;5114566;27;20523;-70
2022/09/18 07:38:07;;;;;;;11.30;1.50;;;;;;;;;;5122421;27;20488;-70
2022/09/18 07:40:35;;;;;;;6.30;1.23;;;;;;;;;;5134965;27;20461;-70
2022/09/18 07:43:03;;;;;;;4.93;1.37;;;;;;;;;;5132509;27;20450;-71
2022/09/18 07:45:31;;;;;;;4.57;1.30;;;;;;;;;;5129298;27;20450;-71
2022/09/18 07:48:01;;;;;;;8.17;1.30;;;;;;;;;;5132376;27;20456;-70
2022/09/18 07:50:28;;;;;;;4.67;0.93;;;;;;;;;;5123326;27;20454;-71
2022/09/18 07:52:58;;;;;;;11.83;2.10;;;;;;;;;;5122800;27;20762;-71
2022/09/18 07:55:27;;;;;;;7.37;1.40;;;;;;;;;;5122840;27;20880;-71
2022/09/18 07:57:55;;;;;;;5.50;1.47;;;;;;;;;;5126874;27;20478;-71
2022/09/18 08:00:26;;;;;;;4.90;1.20;;;;;;;;;;5126523;27;20473;-71
2022/09/18 08:03:02;;;;;;;4.80;1.70;;;;;;;;;;5137025;27;20441;-71
2022/09/18 08:05:33;;;;;;;3.27;1.30;;;;;;;;;;5137711;27;20584;-75
2022/09/18 08:08:04;;;;;;;7.73;1.43;;;;;;;;;;5137385;27;20450;-70
2022/09/18 08:10:31;;;;;;;5.73;2.20;;;;;;;;;;5137468;27;20525;-70
2022/09/18 08:12:58;;;;;;;4.27;1.83;;;;;;;;;;5138158;27;20479;-71
2022/09/18 08:15:25;;;;;;;3.53;1.30;;;;;;;;;;5137519;27;20457;-70
2022/09/18 08:17:59;;;;;;;2.47;0.97;;;;;;;;;;5138134;27;20488;-70
2022/09/18 08:20:29;;;;;;;4.87;1.30;;;;;;;;;;5137104;27;20450;-71
2022/09/18 08:22:58;;;;;;;6.20;1.53;;;;;;;;;;5137031;27;20827;-70
2022/09/18 08:25:26;;;;;;;4.27;1.43;;;;;;;;;;5136657;27;20464;-70
2022/09/18 08:27:53;;;;;;;11.70;1.80;;;;;;;;;;5137003;27;20454;-70
2022/09/18 08:33:12;;;;;;;6.60;2.03;;;;;;;;;;5128340;27;20438;-71
2022/09/18 08:35:40;;;;;;;4.00;1.53;;;;;;;;;;5134385;27;20454;-71
2022/09/18 08:38:13;;;;;;;7.93;1.67;;;;;;;;;;5123331;27;20657;-71
2022/09/18 08:41:00;;;;;;;5.17;1.90;;;;;;;;;;5156262;27;20444;-70
2022/09/18 08:43:38;;;;;;;10.00;1.80;;;;;;;;;;5157153;27;21082;-72
2022/09/18 08:46:08;;;;;;;5.57;1.10;;;;;;;;;;5124973;27;20470;-71
2022/09/18 08:48:39;;;;;;;5.50;1.13;;;;;;;;;;5116869;27;20602;-72
2022/09/18 08:51:17;;;;;;;6.90;2.00;;;;;;;;;;5117802;27;20463;-72
2022/09/18 08:53:47;;;;;;;6.90;1.20;;;;;;;;;;5132091;27;20442;-71
2022/09/18 08:56:16;;;;;;;5.60;1.67;;;;;;;;;;5125821;27;20454;-71
2022/09/18 08:58:45;;;;;;;2.47;1.10;;;;;;;;;;5118014;27;20477;-70
2022/09/18 09:01:16;;;;;;;6.50;1.17;;;;;;;;;;5115333;27;20459;-69
2022/09/18 09:03:50;;;;;;;5.20;1.77;;;;;;;;;;5117361;27;20446;-70
2022/09/18 09:06:25;;;;;;;3.63;2.23;;;;;;;;;;5114596;27;20455;-70
2022/09/18 09:09:09;;;;;;;6.80;0.80;;;;;;;;;;5116178;27;20477;-69
2022/09/18 09:11:41;;;;;;;3.87;1.53;;;;;;;;;;5117144;27;20484;-69
2022/09/18 09:14:15;;;;;;;10.30;1.83;;;;;;;;;;5114866;27;20466;-69
2022/09/18 09:16:44;;;;;;;7.37;1.30;;;;;;;;;;5133659;27;20496;-70
2022/09/18 09:19:20;;;;;;;2.53;0.90;;;;;;;;;;5136117;27;20438;-69
2022/09/18 09:21:54;;;;;;;5.97;1.53;;;;;;;;;;5134840;27;20529;-70
2022/09/18 09:24:29;;;;;;;5.53;1.20;;;;;;;;;;5136156;27;20457;-70
2022/09/18 09:26:56;;;;;;;7.87;1.50;;;;;;;;;;5135555;27;20835;-70
2022/09/18 09:29:27;;;;;;;6.53;1.37;;;;;;;;;;5136330;27;20461;-69
2022/09/18 09:31:56;;;;;;;7.10;1.17;;;;;;;;;;5136437;27;20445;-70
2022/09/18 09:34:27;;;;;;;4.73;1.47;;;;;;;;;;5135714;27;20478;-70
2022/09/18 09:36:56;;;;;;;2.10;0.63;;;;;;;;;;5136021;27;20851;-70
2022/09/18 09:39:24;;;;;;;3.80;0.90;;;;;;;;;;5133605;27;20873;-70
2022/09/18 09:41:54;;;;;;;2.47;1.23;;;;;;;;;;5133151;27;20449;-70
2022/09/18 09:44:24;;;;;;;12.37;1.10;;;;;;;;;;5132033;27;20454;-70
2022/09/18 09:46:55;;;;;;;8.37;1.40;;;;;;;;;;5133995;27;20625;-69
2022/09/18 09:49:24;;;;;;;7.50;1.10;;;;;;;;;;5134238;27;20789;-71
2022/09/18 09:51:53;;;;;;;6.77;1.20;;;;;;;;;;5132985;27;20648;-70
2022/09/18 09:54:22;;;;;;;4.00;1.63;;;;;;;;;;5132002;27;20818;-70
2022/09/18 09:56:52;;;;;;;2.90;0.70;;;;;;;;;;5131692;27;20840;-70
2022/09/18 09:59:23;;;;;;;3.23;0.80;;;;;;;;;;5133187;27;20469;-70
2022/09/18 10:01:52;;;;;;;2.80;0.87;;;;;;;;;;5132990;27;20487;-70
2022/09/18 10:04:26;;;;;;;5.53;0.80;;;;;;;;;;5132103;27;20472;-71
2022/09/18 10:06:57;;;;;;;2.67;0.70;;;;;;;;;;5133112;27;20473;-69
2022/09/18 10:09:34;;;;;;;4.10;1.00;;;;;;;;;;5133014;27;20538;-73
2022/09/18 10:12:05;;;;;;;4.03;1.17;;;;;;;;;;5133171;27;20518;-71
2022/09/18 10:14:34;;;;;;;2.80;0.73;;;;;;;;;;5133047;27;20514;-72
2022/09/18 10:17:02;;;;;;;3.90;0.80;;;;;;;;;;5131864;27;20574;-72
2022/09/18 10:19:37;;;;;;;4.30;0.90;;;;;;;;;;5133698;27;20442;-72
2022/09/18 10:22:06;;;;;;;2.27;0.80;;;;;;;;;;5133385;27;20470;-71
2022/09/18 10:24:40;;;;;;;6.67;0.90;;;;;;;;;;5132665;27;20445;-71
2022/09/18 10:27:10;;;;;;;3.03;0.90;;;;;;;;;;5132883;27;20471;-72
2022/09/18 10:29:37;;;;;;;1.97;0.60;;;;;;;;;;5132471;27;20441;-72
2022/09/18 10:32:05;;;;;;;2.53;0.80;;;;;;;;;;5133248;27;20456;-72
2022/09/18 10:34:34;;;;;;;2.20;1.00;;;;;;;;;;5136160;27;20442;-72
2022/09/18 10:37:05;;;;;;;1.97;0.53;;;;;;;;;;5135312;27;20482;-73
2022/09/18 10:39:33;;;;;;;8.50;1.70;;;;;;;;;;5133873;27;20527;-72
2022/09/18 10:42:05;;;;;;;3.00;0.80;;;;;;;;;;5132588;27;20561;-71
2022/09/18 10:44:35;;;;;;;1.93;0.83;;;;;;;;;;5130232;27;20458;-71
2022/09/18 10:47:05;;;;;;;2.80;0.73;;;;;;;;;;5128342;27;20703;-72
2022/09/18 10:49:34;;;;;;;5.47;1.00;;;;;;;;;;5135724;27;20518;-72
2022/09/18 10:52:20;;;;;;;3.50;1.20;;;;;;;;;;5134390;27;20454;-72
2022/09/18 10:55:01;;;;;;;3.93;1.00;;;;;;;;;;5122598;27;20535;-72
2022/09/18 10:57:31;;;;;;;5.13;1.23;;;;;;;;;;5114609;27;20484;-72
2022/09/18 10:59:58;;;;;;;7.27;1.43;;;;;;;;;;5115863;27;20923;-72
2022/09/18 11:02:27;;;;;;;3.97;1.10;;;;;;;;;;5135353;27;20506;-72
2022/09/18 11:05:00;;;;;;;4.27;1.20;;;;;;;;;;5133089;27;20813;-72
2022/09/18 11:07:27;;;;;;;5.13;1.43;;;;;;;;;;5112299;27;20478;-71
2022/09/18 11:09:55;;;;;;;4.30;1.33;;;;;;;;;;5112412;27;20459;-71
2022/09/18 11:12:26;;;;;;;3.07;1.00;;;;;;;;;;5112399;27;20454;-70
2022/09/18 11:15:01;;;;;;;2.87;0.80;;;;;;;;;;5113998;27;20778;-70
2022/09/18 11:17:30;;;;;;;7.50;1.20;;;;;;;;;;5117098;27;20556;-70
2022/09/18 11:19:58;;;;;;;3.77;1.50;;;;;;;;;;5125363;27;20501;-70
2022/09/18 11:22:33;;;;;;;8.57;1.10;;;;;;;;;;5113899;27;20457;-70
2022/09/18 11:25:08;;;;;;;2.43;0.70;;;;;;;;;;5113729;27;20530;-71
2022/09/18 11:27:53;;;;;;;3.03;1.37;;;;;;;;;;5113534;27;20438;-72
2022/09/18 11:30:30;;;;;;;4.80;1.23;;;;;;;;;;5132003;27;20481;-72
2022/09/18 11:33:01;;;;;;;3.77;1.00;;;;;;;;;;5125853;27;20552;-71
2022/09/18 11:35:29;;;;;;;4.43;0.97;;;;;;;;;;5113489;27;20499;-70
2022/09/18 11:37:58;;;;;;;4.60;1.67;;;;;;;;;;5111349;27;20957;-70
2022/09/18 11:40:29;;;;;;;5.27;1.20;;;;;;;;;;5115780;27;20861;-71
2022/09/18 11:42:57;;;;;;;2.53;0.87;;;;;;;;;;5114941;27;20486;-70
2022/09/18 11:45:35;;;;;;;5.13;1.30;;;;;;;;;;5130832;27;21083;-72
2022/09/18 11:48:08;;;;;;;6.50;1.10;;;;;;;;;;5132075;27;20536;-72
2022/09/18 11:50:37;;;;;;;8.20;4.20;;;;;;;;;;5125275;27;20460;-70
2022/09/18 11:53:09;;;;;;;3.50;0.90;;;;;;;;;;5129921;27;20550;-71
2022/09/18 11:55:38;;;;;;;2.27;0.80;;;;;;;;;;5131152;27;20499;-70
2022/09/18 11:58:08;;;;;;;2.00;0.77;;;;;;;;;;5128669;27;20478;-70
2022/09/18 12:00:57;;;;;;;4.70;1.10;;;;;;;;;;5114414;27;20488;-70
2022/09/18 12:03:25;;;;;;;6.67;0.67;;;;;;;;;;5122182;27;20484;-71
2022/09/18 12:05:54;;;;;;;2.60;0.70;;;;;;;;;;5114109;27;20538;-70
2022/09/18 12:08:25;;;;;;;2.87;0.80;;;;;;;;;;5113928;27;20542;-71
2022/09/18 12:10:56;;;;;;;2.77;0.80;;;;;;;;;;5113491;27;20482;-71
2022/09/18 12:13:35;;;;;;;5.07;0.73;;;;;;;;;;5114880;27;20936;-71
2022/09/18 12:16:08;;;;;;;4.87;1.00;;;;;;;;;;5123712;27;20488;-70
2022/09/18 12:18:41;;;;;;;3.77;0.93;;;;;;;;;;5113689;27;20510;-71
2022/09/18 12:21:12;;;;;;;1.87;0.87;;;;;;;;;;5114903;27;20450;-71
2022/09/18 12:23:39;;;;;;;2.13;0.70;;;;;;;;;;5113330;27;20446;-71
2022/09/18 12:26:11;;;;;;;1.20;0.57;;;;;;;;;;5115959;27;20549;-71
2022/09/18 12:28:42;;;;;;;3.60;0.70;;;;;;;;;;5114805;27;20855;-70
2022/09/18 12:31:15;;;;;;;6.53;0.80;;;;;;;;;;5115096;27;20443;-71
2022/09/18 12:33:44;;;;;;;1.50;0.53;;;;;;;;;;5123829;27;20461;-71
2022/09/18 12:36:32;;;;;;;2.37;0.60;;;;;;;;;;5113479;27;20443;-69
2022/09/18 12:39:08;;;;;;;1.50;0.50;;;;;;;;;;5119901;27;20478;-70
2022/09/18 12:41:43;;;;;;;5.77;0.80;;;;;;;;;;5127603;27;20460;-70
2022/09/18 12:44:28;;;;;;;1.93;0.50;;;;;;;;;;5126887;27;20814;-69
2022/09/18 12:47:14;;;;;;;3.83;0.70;;;;;;;;;;5115891;27;20454;-70
2022/09/18 12:49:52;;;;;;;2.47;0.60;;;;;;;;;;5118022;27;20466;-69
2022/09/18 12:52:23;;;;;;;4.63;0.70;;;;;;;;;;5117429;27;20461;-70
2022/09/18 12:55:01;;;;;;;2.60;0.70;;;;;;;;;;5114793;27;20451;-70
2022/09/18 12:57:32;;;;;;;4.70;0.60;;;;;;;;;;5114867;27;20500;-70
2022/09/18 13:00:06;;;;;;;1.67;0.60;;;;;;;;;;5115019;27;20501;-72
2022/09/18 13:02:40;;;;;;;4.13;0.60;;;;;;;;;;5137204;27;20453;-70
2022/09/18 13:05:09;;;;;;;1.80;0.70;;;;;;;;;;5138182;27;20468;-71
2022/09/18 13:07:39;;;;;;;2.03;0.80;;;;;;;;;;5136808;27;20449;-71
2022/09/18 13:10:11;;;;;;;2.90;0.60;;;;;;;;;;5137011;27;20518;-71
2022/09/18 13:12:42;;;;;;;2.37;0.60;;;;;;;;;;5130391;27;20493;-71
2022/09/18 13:15:17;;;;;;;2.17;0.67;;;;;;;;;;5129023;27;20475;-71
2022/09/18 13:17:52;;;;;;;3.23;0.80;;;;;;;;;;5116599;27;20577;-71
2022/09/18 13:20:23;;;;;;;3.10;0.73;;;;;;;;;;5116551;27;20896;-70
2022/09/18 13:22:52;;;;;;;2.67;1.40;;;;;;;;;;5115603;27;20457;-70
2022/09/18 13:25:26;;;;;;;2.77;0.80;;;;;;;;;;5134411;27;20522;-71
2022/09/18 13:27:54;;;;;;;4.97;1.37;;;;;;;;;;5135590;27;20464;-73
2022/09/18 13:30:26;;;;;;;3.60;0.90;;;;;;;;;;5135737;27;20434;-72
2022/09/18 13:32:55;;;;;;;8.80;1.00;;;;;;;;;;5135020;27;20464;-71
2022/09/18 13:35:27;;;;;;;7.03;1.10;;;;;;;;;;5119203;27;20473;-71
2022/09/18 13:38:17;;;;;;;7.53;1.43;;;;;;;;;;5121734;27;20585;-72
2022/09/18 13:40:47;;;;;;;3.17;0.80;;;;;;;;;;5121714;27;20462;-71
2022/09/18 13:43:16;;;;;;;4.00;0.90;;;;;;;;;;5112962;27;20568;-69
2022/09/18 13:45:43;;;;;;;3.93;1.17;;;;;;;;;;5113104;27;20519;-70
2022/09/18 13:48:16;;;;;;;5.93;1.30;;;;;;;;;;5111924;27;20550;-70
2022/09/18 13:50:49;;;;;;;2.43;0.93;;;;;;;;;;5110698;27;20491;-70
2022/09/18 13:53:30;;;;;;;4.63;1.23;;;;;;;;;;5111278;27;20507;-69
2022/09/18 13:55:59;;;;;;;2.53;0.80;;;;;;;;;;5112819;27;20470;-71
2022/09/18 13:58:37;;;;;;;7.10;1.60;;;;;;;;;;5115399;27;20784;-71
2022/09/18 14:01:06;;;;;;;5.63;1.27;;;;;;;;;;5110629;27;20458;-72
2022/09/18 14:03:35;;;;;;;2.17;0.63;;;;;;;;;;5113944;27;20797;-71
2022/09/18 14:06:18;;;;;;;9.20;1.50;;;;;;;;;;5114973;27;20564;-71
2022/09/18 14:08:46;;;;;;;3.73;1.03;;;;;;;;;;5119303;27;20513;-71
2022/09/18 14:11:13;;;;;;;3.20;0.70;;;;;;;;;;5116637;27;20557;-70
2022/09/18 14:13:50;;;;;;;3.83;1.27;;;;;;;;;;5116629;27;20889;-71
2022/09/18 14:16:29;;;;;;;2.67;0.80;;;;;;;;;;5132182;27;20449;-71
2022/09/18 14:19:01;;;;;;;4.13;0.93;;;;;;;;;;5129479;27;20486;-71
2022/09/18 14:21:30;;;;;;;4.93;1.53;;;;;;;;;;5126202;27;20565;-71
2022/09/18 14:24:12;;;;;;;3.50;0.70;;;;;;;;;;5133802;27;20555;-71
2022/09/18 14:27:03;;;;;;;2.13;0.90;;;;;;;;;;5119959;27;20999;-70
2022/09/18 14:29:34;;;;;;;5.30;1.73;;;;;;;;;;5111740;27;20528;-70
2022/09/18 14:32:02;;;;;;;5.63;1.30;;;;;;;;;;5134775;27;20454;-70
2022/09/18 14:34:34;;;;;;;4.83;0.87;;;;;;;;;;5135647;27;20446;-70
2022/09/18 14:37:16;;;;;;;2.73;0.60;;;;;;;;;;5133477;27;20477;-70
2022/09/18 14:39:43;;;;;;;3.20;0.70;;;;;;;;;;5134572;27;20786;-69
2022/09/18 14:42:14;;;;;;;4.63;0.87;;;;;;;;;;5133022;27;20540;-70
2022/09/18 14:44:47;;;;;;;1.60;0.50;;;;;;;;;;5134935;27;20449;-71
2022/09/18 14:47:19;;;;;;;3.57;0.87;;;;;;;;;;5133039;27;20517;-70
2022/09/18 14:49:48;;;;;;;1.90;0.90;;;;;;;;;;5118799;27;20483;-70
2022/09/18 14:52:20;;;;;;;1.67;0.60;;;;;;;;;;5113899;27;20840;-70
2022/09/18 14:54:47;;;;;;;3.70;1.10;;;;;;;;;;5113645;27;20511;-70
2022/09/18 14:57:17;;;;;;;4.90;0.70;;;;;;;;;;5114785;27;20479;-71
2022/09/18 14:59:48;;;;;;;2.37;0.60;;;;;;;;;;5133951;27;20442;-71
2022/09/18 15:02:19;;;;;;;1.73;0.77;;;;;;;;;;5133817;27;20473;-72
2022/09/18 15:04:49;;;;;;;2.63;1.10;;;;;;;;;;5127183;27;20443;-71